createdAt,value
2023-04-22T00:04:21.830Z,100.00
2023-04-22T00:09:17.036Z,100.00
2023-04-22T00:14:10.483Z,100.00
2023-04-22T00:19:03.999Z,100.00
2023-04-22T00:23:57.518Z,100.00
2023-04-22T00:28:52.334Z,100.00
2023-04-22T00:33:45.721Z,100.00
2023-04-22T00:38:40.783Z,100.00
2023-04-22T00:43:34.179Z,100.00
2023-04-22T00:48:30.785Z,100.00
2023-04-22T00:53:24.169Z,100.00
2023-04-22T00:58:20.196Z,100.00
2023-04-22T01:03:14.632Z,100.00
2023-04-22T01:08:09.519Z,100.00
2023-04-22T01:13:02.931Z,100.00
2023-04-22T01:17:57.536Z,100.00
2023-04-22T01:22:56.476Z,100.00
2023-04-22T01:27:51.715Z,100.00
2023-04-22T01:32:46.036Z,100.00
2023-04-22T01:37:40.351Z,100.00
2023-04-22T01:42:34.447Z,100.00
2023-04-22T01:47:29.119Z,100.00
2023-04-22T01:52:22.957Z,100.00
2023-04-22T01:57:16.531Z,100.00
2023-04-22T02:02:10.175Z,100.00
2023-04-22T02:07:04.957Z,100.00
2023-04-22T02:11:58.233Z,100.00
2023-04-22T02:16:51.874Z,100.00
2023-04-22T02:21:45.434Z,100.00
2023-04-22T02:26:40.115Z,100.00
2023-04-22T02:31:33.567Z,100.00
2023-04-22T02:36:27.761Z,100.00
2023-04-22T02:41:21.142Z,100.00
2023-04-22T02:46:17.173Z,100.00
2023-04-22T02:51:10.542Z,100.00
2023-04-22T02:56:04.013Z,100.00
2023-04-22T03:00:58.167Z,100.00
2023-04-22T03:05:53.060Z,100.00
2023-04-22T03:10:46.367Z,100.00
2023-04-22T03:15:41.647Z,100.00
2023-04-22T03:20:35.508Z,100.00
2023-04-22T03:25:30.203Z,100.00
2023-04-22T03:30:24.026Z,100.00
2023-04-22T03:35:17.552Z,100.00
2023-04-22T03:40:13.681Z,100.00
2023-04-22T03:45:09.769Z,100.00
2023-04-22T03:50:03.201Z,100.00
2023-04-22T03:54:56.516Z,100.00
2023-04-22T03:59:52.015Z,100.00
2023-04-22T04:04:47.293Z,100.00
2023-04-22T04:09:41.407Z,100.00
2023-04-22T04:14:35.075Z,100.00
2023-04-22T04:19:28.460Z,100.00
2023-04-22T04:24:23.147Z,100.00
2023-04-22T04:29:16.590Z,100.00
2023-04-22T04:34:09.876Z,100.00
2023-04-22T04:39:04.237Z,100.00
2023-04-22T04:44:00.511Z,100.00
2023-04-22T04:48:54.070Z,100.00
2023-04-22T04:53:47.407Z,100.00
2023-04-22T04:58:40.876Z,100.00
2023-04-22T05:03:36.017Z,100.00
2023-04-22T05:08:29.353Z,100.00
2023-04-22T05:13:22.762Z,100.00
2023-04-22T05:18:16.090Z,100.00
2023-04-22T05:23:10.766Z,100.00
2023-04-22T05:28:04.047Z,100.00
2023-04-22T05:33:08.784Z,100.00
2023-04-22T05:38:03.071Z,100.00
2023-04-22T05:42:58.689Z,100.00
2023-04-22T05:47:52.115Z,100.00
2023-04-22T05:52:45.503Z,100.00
2023-04-22T05:57:39.031Z,100.00
2023-04-22T06:02:33.794Z,100.00
2023-04-22T06:07:27.336Z,100.00
2023-04-22T06:12:21.132Z,100.00
2023-04-22T06:17:14.525Z,100.00
2023-04-22T06:22:09.289Z,100.00
2023-04-22T06:27:03.112Z,100.00
2023-04-22T06:31:56.941Z,100.00
2023-04-22T06:36:51.267Z,100.00
2023-04-22T06:41:45.960Z,100.00
2023-04-22T06:46:42.312Z,100.00
2023-04-22T06:51:35.843Z,100.00
2023-04-22T06:56:29.266Z,100.00
2023-04-22T07:01:24.030Z,100.00
2023-04-22T07:06:17.645Z,100.00
2023-04-22T07:11:14.886Z,100.00
2023-04-22T07:16:08.417Z,100.00
2023-04-22T07:21:03.392Z,100.00
2023-04-22T07:25:56.857Z,100.00
2023-04-22T07:30:55.350Z,100.00
2023-04-22T07:35:49.200Z,100.00
2023-04-22T07:40:43.884Z,100.00
2023-04-22T07:45:37.254Z,100.00
2023-04-22T07:50:30.786Z,100.00
2023-04-22T07:55:24.069Z,100.00
2023-04-22T08:00:19.317Z,100.00
2023-04-22T08:05:12.808Z,100.00
2023-04-22T08:10:08.432Z,100.00
2023-04-22T08:15:01.802Z,100.00
2023-04-22T08:19:56.526Z,100.00
2023-04-22T08:24:49.883Z,100.00
2023-04-22T08:29:43.458Z,100.00
2023-04-22T08:34:37.336Z,100.00
2023-04-22T08:39:32.230Z,100.00
2023-04-22T08:44:26.930Z,100.00
2023-04-22T08:49:22.314Z,100.00
2023-04-22T08:54:16.310Z,100.00
2023-04-22T08:59:12.375Z,100.00
2023-04-22T09:04:07.576Z,100.00
2023-04-22T09:09:01.935Z,100.00
2023-04-22T09:13:56.058Z,100.00
2023-04-22T09:18:52.076Z,100.00
2023-04-22T09:23:49.444Z,100.00
2023-04-22T09:28:51.943Z,100.00
2023-04-22T09:33:51.860Z,100.00
2023-04-22T09:38:55.355Z,100.00
2023-04-22T09:43:48.824Z,100.00
2023-04-22T09:48:45.419Z,100.00
2023-04-22T09:53:40.152Z,100.00
2023-04-22T09:58:33.491Z,100.00
2023-04-22T10:03:26.887Z,100.00
2023-04-22T10:08:20.192Z,100.00
2023-04-22T10:13:15.029Z,100.00
2023-04-22T10:18:13.861Z,100.00
2023-04-22T10:23:14.538Z,100.00
2023-04-22T10:28:10.561Z,100.00
2023-04-22T10:33:40.127Z,100.00
2023-04-22T10:38:36.225Z,100.00
2023-04-22T10:43:43.615Z,100.00
2023-04-22T10:48:51.261Z,100.00
2023-04-22T10:53:46.112Z,100.00
2023-04-22T10:58:39.748Z,100.00
2023-04-22T11:03:33.390Z,100.00
2023-04-22T11:08:29.912Z,100.00
2023-04-22T11:13:23.911Z,100.00
2023-04-22T11:18:21.953Z,100.00
2023-04-22T11:23:21.039Z,88.31
2023-04-22T11:28:15.751Z,88.92
2023-04-22T11:33:09.312Z,87.68
2023-04-22T11:38:04.581Z,89.00
2023-04-22T11:42:59.255Z,97.00
2023-04-22T11:47:55.396Z,89.68
2023-04-22T11:52:52.611Z,88.76
2023-04-22T11:57:53.764Z,84.50
2023-04-22T12:03:00.618Z,90.24
2023-04-22T12:07:54.188Z,83.07
2023-04-22T12:12:47.504Z,87.10
2023-04-22T12:17:41.219Z,83.85
2023-04-22T12:22:36.028Z,81.31
2023-04-22T12:27:29.529Z,86.85
2023-04-22T12:32:24.962Z,76.39
2023-04-22T12:37:19.656Z,78.96
2023-04-22T12:42:14.446Z,84.52
2023-04-22T12:47:09.825Z,77.17
2023-04-22T12:52:03.163Z,75.43
2023-04-22T12:56:57.900Z,78.33
2023-04-22T13:01:52.794Z,82.53
2023-04-22T13:06:46.230Z,88.08
2023-04-22T13:11:39.648Z,86.65
2023-04-22T13:16:32.993Z,79.21
2023-04-22T13:21:28.393Z,84.52
2023-04-22T13:26:22.471Z,81.77
2023-04-22T13:31:15.832Z,85.65
2023-04-22T13:36:11.173Z,81.97
2023-04-22T13:41:06.188Z,80.61
2023-04-22T13:45:59.668Z,87.08
2023-04-22T13:50:52.893Z,85.58
2023-04-22T13:55:46.269Z,83.34
2023-04-22T14:00:40.940Z,79.63
2023-04-22T14:05:34.309Z,75.52
2023-04-22T14:10:28.697Z,75.54
2023-04-22T14:15:22.264Z,75.47
2023-04-22T14:20:16.963Z,73.54
2023-04-22T14:25:11.180Z,72.14
2023-04-22T14:30:05.978Z,77.42
2023-04-22T14:34:59.390Z,77.80
2023-04-22T14:39:54.136Z,86.07
2023-04-22T14:44:47.512Z,86.06
2023-04-22T14:49:41.145Z,99.78
2023-04-22T14:54:34.825Z,96.76
2023-04-22T14:59:29.633Z,82.92
2023-04-22T15:04:23.359Z,84.99
2023-04-22T15:09:16.950Z,83.65
2023-04-22T15:14:10.265Z,96.75
2023-04-22T15:19:04.938Z,85.40
2023-04-22T15:23:58.314Z,89.70
2023-04-22T15:28:51.834Z,89.93
2023-04-22T15:33:45.125Z,92.08
2023-04-22T15:38:40.096Z,90.96
2023-04-22T15:43:33.824Z,99.12
2023-04-22T15:48:27.246Z,96.67
2023-04-22T15:53:20.588Z,97.15
2023-04-22T15:58:15.278Z,100.00
2023-04-22T16:03:08.938Z,100.00
2023-04-22T16:08:03.627Z,99.01
2023-04-22T16:12:57.079Z,100.00
2023-04-22T16:17:51.928Z,100.00
2023-04-22T16:22:45.347Z,100.00
2023-04-22T16:27:38.699Z,100.00
2023-04-22T16:32:32.126Z,100.00
2023-04-22T16:37:27.461Z,100.00
2023-04-22T16:42:20.821Z,100.00
2023-04-22T16:47:14.170Z,100.00
2023-04-22T16:52:07.778Z,100.00
2023-04-22T16:57:02.815Z,100.00
2023-04-22T17:01:56.245Z,100.00
2023-04-22T17:06:49.567Z,100.00
2023-04-22T17:11:43.072Z,100.00
2023-04-22T17:16:38.415Z,100.00
2023-04-22T17:21:31.744Z,100.00
2023-04-22T17:26:25.247Z,100.00
2023-04-22T17:31:19.312Z,100.00
2023-04-22T17:36:14.092Z,100.00
2023-04-22T17:41:07.756Z,100.00
2023-04-22T17:46:01.084Z,100.00
2023-04-22T17:50:54.759Z,100.00
2023-04-22T17:55:49.583Z,100.00
2023-04-22T18:00:42.993Z,100.00
2023-04-22T18:05:42.931Z,100.00
2023-04-22T18:10:36.353Z,100.00
2023-04-22T18:15:31.115Z,100.00
2023-04-22T18:20:24.640Z,100.00
2023-04-22T18:25:18.024Z,100.00
2023-04-22T18:30:12.279Z,100.00
2023-04-22T18:35:09.156Z,100.00
2023-04-22T18:40:02.701Z,100.00
2023-04-22T18:44:56.209Z,100.00
2023-04-22T18:49:49.684Z,100.00
2023-04-22T18:54:44.620Z,100.00
2023-04-22T18:59:37.994Z,100.00
2023-04-22T19:04:31.661Z,100.00
2023-04-22T19:09:25.256Z,100.00
2023-04-22T19:14:20.001Z,100.00
2023-04-22T19:19:13.299Z,100.00
2023-04-22T19:24:07.496Z,100.00
2023-04-22T19:29:03.823Z,100.00
2023-04-22T19:33:58.636Z,100.00
2023-04-22T19:38:54.323Z,100.00
2023-04-22T19:43:47.983Z,100.00
2023-04-22T19:48:49.072Z,100.00
2023-04-22T19:53:44.852Z,100.00
2023-04-22T19:58:41.029Z,100.00
2023-04-22T20:03:38.308Z,100.00
2023-04-22T20:08:33.044Z,100.00
2023-04-22T20:13:31.154Z,100.00
2023-04-22T20:18:27.001Z,100.00
2023-04-22T20:23:26.440Z,100.00
2023-04-22T20:28:22.699Z,100.00
2023-04-22T20:33:18.423Z,100.00
2023-04-22T20:38:19.398Z,100.00
2023-04-22T20:43:18.295Z,100.00
2023-04-22T20:48:11.725Z,100.00
2023-04-22T20:53:09.584Z,100.00
2023-04-22T20:58:03.595Z,100.00
2023-04-22T21:02:57.775Z,100.00
2023-04-22T21:07:53.698Z,100.00
2023-04-22T21:12:49.343Z,100.00
2023-04-22T21:17:51.683Z,100.00
2023-04-22T21:22:47.326Z,100.00
2023-04-22T21:27:41.349Z,100.00
2023-04-22T21:32:40.652Z,100.00
2023-04-22T21:37:34.424Z,100.00
2023-04-22T21:42:31.186Z,100.00
2023-04-22T21:47:24.566Z,100.00
2023-04-22T21:52:21.504Z,100.00
2023-04-22T21:57:17.872Z,100.00
2023-04-22T22:02:11.261Z,100.00
2023-04-22T22:07:04.661Z,100.00
2023-04-22T22:12:01.172Z,100.00
2023-04-22T22:16:57.482Z,100.00
2023-04-22T22:21:51.318Z,100.00
2023-04-22T22:26:45.465Z,100.00
2023-04-22T22:31:40.118Z,100.00
2023-04-22T22:36:33.736Z,100.00
2023-04-22T22:41:26.998Z,100.00
2023-04-22T22:46:20.747Z,100.00
2023-04-22T22:51:18.362Z,100.00
2023-04-22T22:56:12.093Z,100.00
2023-04-22T23:01:05.946Z,100.00
2023-04-22T23:05:59.635Z,100.00
2023-04-22T23:10:54.416Z,100.00
2023-04-22T23:15:47.822Z,100.00
2023-04-22T23:20:42.917Z,100.00
2023-04-22T23:25:37.181Z,100.00
2023-04-22T23:30:32.906Z,100.00
2023-04-22T23:35:27.518Z,100.00
2023-04-22T23:40:21.359Z,100.00
2023-04-22T23:45:15.565Z,100.00
2023-04-22T23:50:14.041Z,100.00
2023-04-22T23:55:10.331Z,100.00
